sensor_id;sensor_type;location;lat;lon;timestamp;P1;durP1;ratioP1;P2;durP2;ratioP2
76208;SDS011;64990;51.698;-0.292;2023-02-08T00:00:32;63.55;;;21.45;;
76208;SDS011;64990;51.698;-0.292;2023-02-08T00:02:58;70.20;;;21.55;;
76208;SDS011;64990;51.698;-0.292;2023-02-08T00:05:23;57.00;;;21.15;;
76208;SDS011;64990;51.698;-0.292;2023-02-08T00:07:50;55.83;;;20.15;;
76208;SDS011;64990;51.698;-0.292;2023-02-08T00:10:16;54.80;;;19.02;;
76208;SDS011;64990;51.698;-0.292;2023-02-08T00:12:42;51.08;;;20.77;;
76208;SDS011;64990;51.698;-0.292;2023-02-08T00:15:08;50.15;;;19.85;;
76208;SDS011;64990;51.698;-0.292;2023-02-08T00:17:34;54.17;;;19.95;;
76208;SDS011;64990;51.698;-0.292;2023-02-08T00:20:00;54.30;;;23.17;;
76208;SDS011;64990;51.698;-0.292;2023-02-08T00:22:26;51.17;;;20.17;;
76208;SDS011;64990;51.698;-0.292;2023-02-08T00:24:52;62.15;;;22.55;;
76208;SDS011;64990;51.698;-0.292;2023-02-08T00:27:18;54.17;;;21.65;;
76208;SDS011;64990;51.698;-0.292;2023-02-08T00:29:45;48.08;;;20.52;;
76208;SDS011;64990;51.698;-0.292;2023-02-08T00:32:11;52.97;;;22.60;;
76208;SDS011;64990;51.698;-0.292;2023-02-08T00:34:37;69.70;;;26.85;;
76208;SDS011;64990;51.698;-0.292;2023-02-08T00:37:03;42.75;;;18.55;;
76208;SDS011;64990;51.698;-0.292;2023-02-08T00:39:29;74.95;;;23.83;;
76208;SDS011;64990;51.698;-0.292;2023-02-08T00:41:55;60.47;;;22.20;;
76208;SDS011;64990;51.698;-0.292;2023-02-08T00:44:21;68.32;;;24.23;;
76208;SDS011;64990;51.698;-0.292;2023-02-08T00:46:47;58.47;;;19.50;;
76208;SDS011;64990;51.698;-0.292;2023-02-08T00:49:14;60.25;;;22.80;;
76208;SDS011;64990;51.698;-0.292;2023-02-08T00:51:40;64.70;;;21.40;;
76208;SDS011;64990;51.698;-0.292;2023-02-08T00:54:06;50.83;;;17.55;;
76208;SDS011;64990;51.698;-0.292;2023-02-08T00:56:31;67.90;;;21.80;;
76208;SDS011;64990;51.698;-0.292;2023-02-08T00:58:57;60.80;;;21.85;;
76208;SDS011;64990;51.698;-0.292;2023-02-08T01:01:23;55.20;;;22.38;;
76208;SDS011;64990;51.698;-0.292;2023-02-08T01:03:49;85.57;;;24.55;;
76208;SDS011;64990;51.698;-0.292;2023-02-08T01:06:16;65.43;;;23.80;;
76208;SDS011;64990;51.698;-0.292;2023-02-08T01:08:42;66.88;;;20.60;;
76208;SDS011;64990;51.698;-0.292;2023-02-08T01:11:10;67.00;;;23.52;;
76208;SDS011;64990;51.698;-0.292;2023-02-08T01:13:37;61.65;;;22.17;;
76208;SDS011;64990;51.698;-0.292;2023-02-08T01:16:04;62.33;;;23.83;;
76208;SDS011;64990;51.698;-0.292;2023-02-08T01:18:30;53.35;;;20.33;;
76208;SDS011;64990;51.698;-0.292;2023-02-08T01:21:01;56.03;;;19.55;;
76208;SDS011;64990;51.698;-0.292;2023-02-08T01:23:27;47.28;;;19.55;;
76208;SDS011;64990;51.698;-0.292;2023-02-08T01:25:53;51.63;;;21.38;;
76208;SDS011;64990;51.698;-0.292;2023-02-08T01:28:19;65.10;;;21.70;;
76208;SDS011;64990;51.698;-0.292;2023-02-08T01:30:45;86.20;;;19.50;;
76208;SDS011;64990;51.698;-0.292;2023-02-08T01:33:11;53.72;;;18.35;;
76208;SDS011;64990;51.698;-0.292;2023-02-08T01:35:37;57.50;;;18.55;;
76208;SDS011;64990;51.698;-0.292;2023-02-08T01:38:03;49.20;;;19.58;;
76208;SDS011;64990;51.698;-0.292;2023-02-08T01:40:29;63.25;;;20.10;;
76208;SDS011;64990;51.698;-0.292;2023-02-08T01:42:55;59.50;;;23.98;;
76208;SDS011;64990;51.698;-0.292;2023-02-08T01:45:29;48.90;;;19.15;;
76208;SDS011;64990;51.698;-0.292;2023-02-08T01:47:57;51.17;;;21.13;;
76208;SDS011;64990;51.698;-0.292;2023-02-08T01:50:25;46.92;;;19.90;;
76208;SDS011;64990;51.698;-0.292;2023-02-08T01:52:54;45.92;;;20.70;;
76208;SDS011;64990;51.698;-0.292;2023-02-08T01:55:25;52.88;;;20.85;;
76208;SDS011;64990;51.698;-0.292;2023-02-08T01:57:53;53.22;;;19.02;;
76208;SDS011;64990;51.698;-0.292;2023-02-08T02:00:20;44.53;;;18.98;;
76208;SDS011;64990;51.698;-0.292;2023-02-08T02:02:47;59.25;;;20.95;;
76208;SDS011;64990;51.698;-0.292;2023-02-08T02:05:16;56.55;;;18.40;;
76208;SDS011;64990;51.698;-0.292;2023-02-08T02:07:43;62.53;;;19.95;;
76208;SDS011;64990;51.698;-0.292;2023-02-08T02:10:20;58.42;;;18.98;;
76208;SDS011;64990;51.698;-0.292;2023-02-08T02:12:47;63.30;;;20.30;;
76208;SDS011;64990;51.698;-0.292;2023-02-08T02:15:14;56.85;;;17.55;;
76208;SDS011;64990;51.698;-0.292;2023-02-08T02:17:40;47.95;;;18.23;;
76208;SDS011;64990;51.698;-0.292;2023-02-08T02:20:24;58.78;;;18.40;;
76208;SDS011;64990;51.698;-0.292;2023-02-08T02:28:33;56.30;;;17.98;;
76208;SDS011;64990;51.698;-0.292;2023-02-08T02:33:29;53.92;;;21.98;;
76208;SDS011;64990;51.698;-0.292;2023-02-08T02:40:53;60.38;;;24.33;;
76208;SDS011;64990;51.698;-0.292;2023-02-08T02:43:36;40.13;;;19.25;;
76208;SDS011;64990;51.698;-0.292;2023-02-08T02:51:24;62.80;;;19.65;;
76208;SDS011;64990;51.698;-0.292;2023-02-08T02:53:56;42.13;;;18.10;;
76208;SDS011;64990;51.698;-0.292;2023-02-08T02:56:26;41.65;;;18.60;;
76208;SDS011;64990;51.698;-0.292;2023-02-08T02:58:55;52.92;;;18.55;;
76208;SDS011;64990;51.698;-0.292;2023-02-08T03:01:22;47.17;;;19.15;;
76208;SDS011;64990;51.698;-0.292;2023-02-08T03:03:54;44.08;;;20.85;;
76208;SDS011;64990;51.698;-0.292;2023-02-08T03:11:56;47.67;;;17.88;;
76208;SDS011;64990;51.698;-0.292;2023-02-08T03:14:32;57.65;;;18.65;;
76208;SDS011;64990;51.698;-0.292;2023-02-08T03:17:06;57.33;;;19.88;;
76208;SDS011;64990;51.698;-0.292;2023-02-08T03:19:38;52.70;;;19.48;;
76208;SDS011;64990;51.698;-0.292;2023-02-08T03:22:12;47.33;;;19.02;;
76208;SDS011;64990;51.698;-0.292;2023-02-08T03:24:45;76.57;;;17.35;;
76208;SDS011;64990;51.698;-0.292;2023-02-08T03:37:13;50.33;;;17.45;;
76208;SDS011;64990;51.698;-0.292;2023-02-08T03:39:40;44.45;;;17.10;;
76208;SDS011;64990;51.698;-0.292;2023-02-08T03:42:09;51.17;;;18.70;;
76208;SDS011;64990;51.698;-0.292;2023-02-08T03:44:38;51.10;;;17.65;;
76208;SDS011;64990;51.698;-0.292;2023-02-08T03:47:07;56.90;;;18.70;;
76208;SDS011;64990;51.698;-0.292;2023-02-08T03:49:34;42.45;;;16.13;;
76208;SDS011;64990;51.698;-0.292;2023-02-08T03:52:01;48.53;;;15.00;;
76208;SDS011;64990;51.698;-0.292;2023-02-08T03:54:29;38.65;;;16.40;;
76208;SDS011;64990;51.698;-0.292;2023-02-08T03:56:58;54.63;;;19.13;;
76208;SDS011;64990;51.698;-0.292;2023-02-08T03:59:34;64.60;;;19.73;;
76208;SDS011;64990;51.698;-0.292;2023-02-08T04:02:02;44.88;;;18.30;;
76208;SDS011;64990;51.698;-0.292;2023-02-08T04:04:33;51.20;;;16.80;;
76208;SDS011;64990;51.698;-0.292;2023-02-08T04:07:00;52.55;;;17.13;;
76208;SDS011;64990;51.698;-0.292;2023-02-08T04:09:26;42.45;;;16.48;;
76208;SDS011;64990;51.698;-0.292;2023-02-08T04:11:52;56.70;;;17.58;;
76208;SDS011;64990;51.698;-0.292;2023-02-08T04:14:18;39.42;;;17.25;;
76208;SDS011;64990;51.698;-0.292;2023-02-08T04:16:44;68.70;;;21.02;;
76208;SDS011;64990;51.698;-0.292;2023-02-08T04:19:10;56.30;;;18.70;;
76208;SDS011;64990;51.698;-0.292;2023-02-08T04:21:36;47.88;;;16.30;;
76208;SDS011;64990;51.698;-0.292;2023-02-08T04:24:02;59.10;;;16.33;;
76208;SDS011;64990;51.698;-0.292;2023-02-08T04:26:28;37.80;;;17.02;;
76208;SDS011;64990;51.698;-0.292;2023-02-08T04:28:54;59.75;;;19.85;;
76208;SDS011;64990;51.698;-0.292;2023-02-08T04:31:20;57.08;;;17.40;;
76208;SDS011;64990;51.698;-0.292;2023-02-08T04:33:46;50.80;;;16.58;;
76208;SDS011;64990;51.698;-0.292;2023-02-08T04:36:12;38.72;;;15.60;;
76208;SDS011;64990;51.698;-0.292;2023-02-08T04:38:38;47.90;;;18.17;;
76208;SDS011;64990;51.698;-0.292;2023-02-08T04:41:04;61.17;;;19.85;;
76208;SDS011;64990;51.698;-0.292;2023-02-08T04:43:30;48.78;;;18.00;;
76208;SDS011;64990;51.698;-0.292;2023-02-08T04:45:57;51.80;;;19.67;;
76208;SDS011;64990;51.698;-0.292;2023-02-08T04:48:23;53.58;;;19.75;;
76208;SDS011;64990;51.698;-0.292;2023-02-08T04:50:49;63.35;;;16.48;;
76208;SDS011;64990;51.698;-0.292;2023-02-08T04:53:15;100.13;;;22.02;;
76208;SDS011;64990;51.698;-0.292;2023-02-08T04:55:41;74.88;;;19.42;;
76208;SDS011;64990;51.698;-0.292;2023-02-08T04:58:07;57.58;;;16.95;;
76208;SDS011;64990;51.698;-0.292;2023-02-08T05:00:33;48.38;;;17.67;;
76208;SDS011;64990;51.698;-0.292;2023-02-08T05:02:59;59.45;;;19.55;;
76208;SDS011;64990;51.698;-0.292;2023-02-08T05:05:25;49.95;;;16.23;;
76208;SDS011;64990;51.698;-0.292;2023-02-08T05:07:52;56.13;;;18.05;;
76208;SDS011;64990;51.698;-0.292;2023-02-08T05:10:18;62.45;;;17.92;;
76208;SDS011;64990;51.698;-0.292;2023-02-08T05:12:44;53.55;;;17.50;;
76208;SDS011;64990;51.698;-0.292;2023-02-08T05:15:10;55.63;;;19.08;;
76208;SDS011;64990;51.698;-0.292;2023-02-08T05:17:36;44.28;;;18.83;;
76208;SDS011;64990;51.698;-0.292;2023-02-08T05:20:03;34.30;;;15.82;;
76208;SDS011;64990;51.698;-0.292;2023-02-08T05:22:30;43.88;;;17.90;;
76208;SDS011;64990;51.698;-0.292;2023-02-08T05:24:56;44.40;;;15.57;;
76208;SDS011;64990;51.698;-0.292;2023-02-08T05:27:22;41.85;;;17.27;;
76208;SDS011;64990;51.698;-0.292;2023-02-08T05:29:48;52.85;;;13.73;;
76208;SDS011;64990;51.698;-0.292;2023-02-08T05:32:14;39.65;;;16.77;;
76208;SDS011;64990;51.698;-0.292;2023-02-08T05:34:40;51.60;;;20.67;;
76208;SDS011;64990;51.698;-0.292;2023-02-08T05:37:06;39.05;;;17.58;;
76208;SDS011;64990;51.698;-0.292;2023-02-08T05:39:32;53.67;;;18.15;;
76208;SDS011;64990;51.698;-0.292;2023-02-08T05:41:58;53.22;;;20.10;;
76208;SDS011;64990;51.698;-0.292;2023-02-08T05:44:24;52.17;;;16.75;;
76208;SDS011;64990;51.698;-0.292;2023-02-08T05:46:50;48.33;;;18.05;;
76208;SDS011;64990;51.698;-0.292;2023-02-08T05:49:16;49.47;;;18.48;;
76208;SDS011;64990;51.698;-0.292;2023-02-08T05:51:42;44.13;;;18.40;;
76208;SDS011;64990;51.698;-0.292;2023-02-08T05:54:08;52.55;;;16.85;;
76208;SDS011;64990;51.698;-0.292;2023-02-08T05:56:34;45.47;;;16.55;;
76208;SDS011;64990;51.698;-0.292;2023-02-08T05:59:01;54.80;;;20.45;;
76208;SDS011;64990;51.698;-0.292;2023-02-08T06:01:27;48.05;;;17.92;;
76208;SDS011;64990;51.698;-0.292;2023-02-08T06:03:53;43.25;;;17.02;;
76208;SDS011;64990;51.698;-0.292;2023-02-08T06:06:19;53.20;;;19.02;;
76208;SDS011;64990;51.698;-0.292;2023-02-08T06:08:45;77.40;;;22.02;;
76208;SDS011;64990;51.698;-0.292;2023-02-08T06:11:12;63.50;;;23.58;;
76208;SDS011;64990;51.698;-0.292;2023-02-08T06:13:38;86.80;;;27.70;;
76208;SDS011;64990;51.698;-0.292;2023-02-08T06:16:04;45.83;;;19.30;;
76208;SDS011;64990;51.698;-0.292;2023-02-08T06:18:30;56.60;;;19.77;;
76208;SDS011;64990;51.698;-0.292;2023-02-08T06:20:56;41.25;;;15.82;;
76208;SDS011;64990;51.698;-0.292;2023-02-08T06:23:23;45.00;;;18.60;;
76208;SDS011;64990;51.698;-0.292;2023-02-08T06:25:50;58.78;;;20.23;;
76208;SDS011;64990;51.698;-0.292;2023-02-08T06:28:16;55.95;;;19.13;;
76208;SDS011;64990;51.698;-0.292;2023-02-08T06:30:42;51.03;;;19.27;;
76208;SDS011;64990;51.698;-0.292;2023-02-08T06:33:08;47.00;;;18.48;;
76208;SDS011;64990;51.698;-0.292;2023-02-08T06:35:34;51.03;;;16.80;;
76208;SDS011;64990;51.698;-0.292;2023-02-08T06:38:00;52.13;;;19.05;;
76208;SDS011;64990;51.698;-0.292;2023-02-08T06:40:28;38.05;;;15.27;;
76208;SDS011;64990;51.698;-0.292;2023-02-08T06:42:54;51.67;;;19.92;;
76208;SDS011;64990;51.698;-0.292;2023-02-08T06:45:20;53.20;;;17.15;;
76208;SDS011;64990;51.698;-0.292;2023-02-08T06:47:46;44.22;;;16.70;;
76208;SDS011;64990;51.698;-0.292;2023-02-08T06:50:12;48.38;;;18.33;;
76208;SDS011;64990;51.698;-0.292;2023-02-08T06:52:39;51.28;;;17.40;;
76208;SDS011;64990;51.698;-0.292;2023-02-08T06:55:05;50.33;;;18.75;;
76208;SDS011;64990;51.698;-0.292;2023-02-08T06:57:31;48.35;;;19.23;;
76208;SDS011;64990;51.698;-0.292;2023-02-08T06:59:57;49.95;;;17.52;;
76208;SDS011;64990;51.698;-0.292;2023-02-08T07:02:23;40.58;;;15.23;;
76208;SDS011;64990;51.698;-0.292;2023-02-08T07:04:50;57.50;;;18.25;;
76208;SDS011;64990;51.698;-0.292;2023-02-08T07:07:17;41.05;;;16.42;;
76208;SDS011;64990;51.698;-0.292;2023-02-08T07:09:43;43.15;;;17.10;;
76208;SDS011;64990;51.698;-0.292;2023-02-08T07:12:11;48.88;;;19.58;;
76208;SDS011;64990;51.698;-0.292;2023-02-08T07:14:40;52.17;;;19.88;;
76208;SDS011;64990;51.698;-0.292;2023-02-08T07:17:07;54.67;;;22.42;;
76208;SDS011;64990;51.698;-0.292;2023-02-08T07:19:33;53.15;;;19.80;;
76208;SDS011;64990;51.698;-0.292;2023-02-08T07:21:59;55.95;;;20.05;;
76208;SDS011;64990;51.698;-0.292;2023-02-08T07:24:31;49.63;;;20.30;;
76208;SDS011;64990;51.698;-0.292;2023-02-08T07:26:57;73.50;;;21.17;;
76208;SDS011;64990;51.698;-0.292;2023-02-08T07:29:23;49.20;;;20.25;;
76208;SDS011;64990;51.698;-0.292;2023-02-08T07:31:49;56.95;;;21.45;;
76208;SDS011;64990;51.698;-0.292;2023-02-08T07:34:15;49.88;;;22.02;;
76208;SDS011;64990;51.698;-0.292;2023-02-08T07:36:45;59.65;;;22.30;;
76208;SDS011;64990;51.698;-0.292;2023-02-08T07:39:12;53.35;;;22.73;;
76208;SDS011;64990;51.698;-0.292;2023-02-08T07:41:38;74.35;;;22.83;;
76208;SDS011;64990;51.698;-0.292;2023-02-08T07:44:04;61.10;;;23.60;;
76208;SDS011;64990;51.698;-0.292;2023-02-08T07:46:30;75.25;;;24.65;;
76208;SDS011;64990;51.698;-0.292;2023-02-08T07:48:56;56.95;;;22.92;;
76208;SDS011;64990;51.698;-0.292;2023-02-08T07:51:22;62.45;;;22.52;;
76208;SDS011;64990;51.698;-0.292;2023-02-08T07:53:49;57.53;;;23.52;;
76208;SDS011;64990;51.698;-0.292;2023-02-08T07:56:15;53.65;;;20.13;;
76208;SDS011;64990;51.698;-0.292;2023-02-08T07:58:41;58.60;;;23.50;;
76208;SDS011;64990;51.698;-0.292;2023-02-08T08:01:07;52.42;;;21.27;;
76208;SDS011;64990;51.698;-0.292;2023-02-08T08:03:33;70.55;;;24.08;;
76208;SDS011;64990;51.698;-0.292;2023-02-08T08:05:59;64.53;;;22.38;;
76208;SDS011;64990;51.698;-0.292;2023-02-08T08:08:26;56.45;;;22.27;;
76208;SDS011;64990;51.698;-0.292;2023-02-08T08:10:52;53.55;;;23.30;;
76208;SDS011;64990;51.698;-0.292;2023-02-08T08:13:18;56.60;;;21.23;;
76208;SDS011;64990;51.698;-0.292;2023-02-08T08:15:45;58.80;;;22.02;;
76208;SDS011;64990;51.698;-0.292;2023-02-08T08:18:11;61.10;;;20.92;;
76208;SDS011;64990;51.698;-0.292;2023-02-08T08:20:37;54.13;;;22.00;;
76208;SDS011;64990;51.698;-0.292;2023-02-08T08:23:03;65.50;;;22.83;;
76208;SDS011;64990;51.698;-0.292;2023-02-08T08:25:29;54.45;;;19.00;;
76208;SDS011;64990;51.698;-0.292;2023-02-08T08:27:55;56.30;;;18.98;;
76208;SDS011;64990;51.698;-0.292;2023-02-08T08:30:22;49.67;;;18.73;;
76208;SDS011;64990;51.698;-0.292;2023-02-08T08:32:48;54.92;;;17.73;;
76208;SDS011;64990;51.698;-0.292;2023-02-08T08:35:14;47.92;;;19.95;;
76208;SDS011;64990;51.698;-0.292;2023-02-08T08:37:40;50.17;;;19.17;;
76208;SDS011;64990;51.698;-0.292;2023-02-08T08:40:06;48.72;;;18.95;;
76208;SDS011;64990;51.698;-0.292;2023-02-08T08:42:33;48.58;;;20.02;;
76208;SDS011;64990;51.698;-0.292;2023-02-08T08:45:00;50.60;;;18.65;;
76208;SDS011;64990;51.698;-0.292;2023-02-08T08:47:26;49.25;;;20.38;;
76208;SDS011;64990;51.698;-0.292;2023-02-08T08:49:52;63.00;;;18.33;;
76208;SDS011;64990;51.698;-0.292;2023-02-08T08:52:18;48.50;;;21.15;;
76208;SDS011;64990;51.698;-0.292;2023-02-08T08:54:44;64.88;;;20.67;;
76208;SDS011;64990;51.698;-0.292;2023-02-08T08:57:10;52.35;;;20.38;;
76208;SDS011;64990;51.698;-0.292;2023-02-08T08:59:36;49.30;;;19.77;;
76208;SDS011;64990;51.698;-0.292;2023-02-08T09:02:02;48.85;;;20.65;;
76208;SDS011;64990;51.698;-0.292;2023-02-08T09:04:28;50.08;;;19.38;;
76208;SDS011;64990;51.698;-0.292;2023-02-08T09:06:54;52.55;;;22.40;;
76208;SDS011;64990;51.698;-0.292;2023-02-08T09:09:20;82.97;;;26.90;;
76208;SDS011;64990;51.698;-0.292;2023-02-08T09:11:46;79.90;;;24.95;;
76208;SDS011;64990;51.698;-0.292;2023-02-08T09:14:13;94.68;;;25.98;;
76208;SDS011;64990;51.698;-0.292;2023-02-08T09:16:39;103.90;;;27.50;;
76208;SDS011;64990;51.698;-0.292;2023-02-08T09:19:06;173.18;;;34.38;;
76208;SDS011;64990;51.698;-0.292;2023-02-08T09:21:33;128.27;;;27.80;;
76208;SDS011;64990;51.698;-0.292;2023-02-08T09:24:02;91.00;;;25.48;;
76208;SDS011;64990;51.698;-0.292;2023-02-08T09:26:28;114.72;;;31.88;;
76208;SDS011;64990;51.698;-0.292;2023-02-08T09:28:54;173.13;;;29.10;;
76208;SDS011;64990;51.698;-0.292;2023-02-08T09:31:25;539.65;;;58.33;;
76208;SDS011;64990;51.698;-0.292;2023-02-08T09:33:52;219.20;;;34.30;;
76208;SDS011;64990;51.698;-0.292;2023-02-08T09:36:19;246.32;;;34.60;;
76208;SDS011;64990;51.698;-0.292;2023-02-08T09:38:46;465.27;;;42.20;;
76208;SDS011;64990;51.698;-0.292;2023-02-08T09:46:23;110.60;;;30.80;;
76208;SDS011;64990;51.698;-0.292;2023-02-08T09:48:51;104.97;;;33.03;;
76208;SDS011;64990;51.698;-0.292;2023-02-08T09:53:47;116.95;;;35.05;;
76208;SDS011;64990;51.698;-0.292;2023-02-08T09:56:27;87.57;;;28.55;;
76208;SDS011;64990;51.698;-0.292;2023-02-08T09:58:54;95.68;;;28.80;;
76208;SDS011;64990;51.698;-0.292;2023-02-08T10:01:23;120.93;;;31.23;;
76208;SDS011;64990;51.698;-0.292;2023-02-08T10:03:56;82.07;;;28.50;;
76208;SDS011;64990;51.698;-0.292;2023-02-08T10:06:23;70.65;;;26.58;;
76208;SDS011;64990;51.698;-0.292;2023-02-08T10:08:50;87.63;;;30.27;;
76208;SDS011;64990;51.698;-0.292;2023-02-08T10:16:46;89.07;;;28.97;;
76208;SDS011;64990;51.698;-0.292;2023-02-08T10:27:07;98.38;;;29.70;;
76208;SDS011;64990;51.698;-0.292;2023-02-08T10:32:06;77.13;;;28.38;;
76208;SDS011;64990;51.698;-0.292;2023-02-08T10:34:45;79.85;;;32.20;;
76208;SDS011;64990;51.698;-0.292;2023-02-08T10:37:19;83.63;;;31.10;;
76208;SDS011;64990;51.698;-0.292;2023-02-08T10:39:46;84.05;;;32.67;;
76208;SDS011;64990;51.698;-0.292;2023-02-08T10:42:14;80.95;;;28.55;;
76208;SDS011;64990;51.698;-0.292;2023-02-08T10:49:43;71.38;;;28.80;;
76208;SDS011;64990;51.698;-0.292;2023-02-08T10:52:12;80.20;;;28.45;;
76208;SDS011;64990;51.698;-0.292;2023-02-08T10:54:38;72.35;;;28.48;;
76208;SDS011;64990;51.698;-0.292;2023-02-08T10:57:05;82.78;;;32.45;;
76208;SDS011;64990;51.698;-0.292;2023-02-08T10:59:54;68.43;;;28.77;;
76208;SDS011;64990;51.698;-0.292;2023-02-08T11:02:22;86.90;;;36.40;;
76208;SDS011;64990;51.698;-0.292;2023-02-08T11:04:56;85.32;;;28.55;;
76208;SDS011;64990;51.698;-0.292;2023-02-08T11:07:23;64.05;;;27.42;;
76208;SDS011;64990;51.698;-0.292;2023-02-08T11:09:49;77.15;;;30.98;;
76208;SDS011;64990;51.698;-0.292;2023-02-08T11:12:18;73.88;;;31.17;;
76208;SDS011;64990;51.698;-0.292;2023-02-08T11:14:49;74.53;;;31.25;;
76208;SDS011;64990;51.698;-0.292;2023-02-08T11:17:22;87.78;;;29.35;;
76208;SDS011;64990;51.698;-0.292;2023-02-08T11:19:49;68.32;;;27.85;;
76208;SDS011;64990;51.698;-0.292;2023-02-08T11:22:16;54.97;;;26.20;;
76208;SDS011;64990;51.698;-0.292;2023-02-08T11:24:43;70.75;;;31.38;;
76208;SDS011;64990;51.698;-0.292;2023-02-08T11:27:36;66.88;;;26.95;;
76208;SDS011;64990;51.698;-0.292;2023-02-08T11:32:42;61.58;;;26.98;;
76208;SDS011;64990;51.698;-0.292;2023-02-08T11:35:22;64.35;;;27.13;;
76208;SDS011;64990;51.698;-0.292;2023-02-08T11:37:48;54.45;;;23.98;;
76208;SDS011;64990;51.698;-0.292;2023-02-08T11:40:19;49.03;;;22.75;;
76208;SDS011;64990;51.698;-0.292;2023-02-08T11:42:46;67.68;;;25.60;;
76208;SDS011;64990;51.698;-0.292;2023-02-08T11:45:17;74.22;;;24.83;;
76208;SDS011;64990;51.698;-0.292;2023-02-08T11:47:45;69.80;;;24.67;;
76208;SDS011;64990;51.698;-0.292;2023-02-08T11:50:20;47.80;;;23.42;;
76208;SDS011;64990;51.698;-0.292;2023-02-08T11:52:49;59.92;;;21.42;;
76208;SDS011;64990;51.698;-0.292;2023-02-08T11:57:56;45.28;;;18.83;;
76208;SDS011;64990;51.698;-0.292;2023-02-08T12:00:24;31.17;;;15.43;;
76208;SDS011;64990;51.698;-0.292;2023-02-08T12:02:53;41.33;;;17.88;;
76208;SDS011;64990;51.698;-0.292;2023-02-08T12:05:22;31.48;;;15.23;;
76208;SDS011;64990;51.698;-0.292;2023-02-08T12:07:55;28.05;;;12.48;;
76208;SDS011;64990;51.698;-0.292;2023-02-08T12:18:25;27.70;;;15.00;;
76208;SDS011;64990;51.698;-0.292;2023-02-08T12:21:01;28.20;;;13.13;;
76208;SDS011;64990;51.698;-0.292;2023-02-08T12:29:04;42.00;;;17.48;;
76208;SDS011;64990;51.698;-0.292;2023-02-08T12:36:57;50.72;;;19.13;;
76208;SDS011;64990;51.698;-0.292;2023-02-08T12:39:46;31.08;;;16.15;;
76208;SDS011;64990;51.698;-0.292;2023-02-08T12:45:13;44.53;;;20.15;;
76208;SDS011;64990;51.698;-0.292;2023-02-08T12:52:51;46.08;;;20.27;;
76208;SDS011;64990;51.698;-0.292;2023-02-08T12:57:48;35.35;;;17.17;;
76208;SDS011;64990;51.698;-0.292;2023-02-08T13:00:27;42.25;;;16.52;;
76208;SDS011;64990;51.698;-0.292;2023-02-08T13:02:57;33.88;;;15.85;;
76208;SDS011;64990;51.698;-0.292;2023-02-08T13:05:28;43.92;;;16.85;;
76208;SDS011;64990;51.698;-0.292;2023-02-08T13:07:58;32.30;;;14.32;;
76208;SDS011;64990;51.698;-0.292;2023-02-08T13:13:00;31.88;;;12.32;;
76208;SDS011;64990;51.698;-0.292;2023-02-08T13:15:31;31.60;;;13.70;;
76208;SDS011;64990;51.698;-0.292;2023-02-08T13:18:17;31.80;;;13.38;;
76208;SDS011;64990;51.698;-0.292;2023-02-08T13:20:45;28.60;;;13.45;;
76208;SDS011;64990;51.698;-0.292;2023-02-08T13:25:51;30.88;;;13.02;;
76208;SDS011;64990;51.698;-0.292;2023-02-08T13:28:19;30.15;;;11.80;;
76208;SDS011;64990;51.698;-0.292;2023-02-08T13:30:51;21.13;;;11.93;;
76208;SDS011;64990;51.698;-0.292;2023-02-08T13:33:19;28.77;;;13.32;;
76208;SDS011;64990;51.698;-0.292;2023-02-08T13:35:48;26.13;;;11.27;;
76208;SDS011;64990;51.698;-0.292;2023-02-08T13:38:24;31.73;;;13.18;;
76208;SDS011;64990;51.698;-0.292;2023-02-08T13:41:04;26.80;;;11.95;;
76208;SDS011;64990;51.698;-0.292;2023-02-08T13:43:41;29.73;;;13.07;;
76208;SDS011;64990;51.698;-0.292;2023-02-08T13:46:09;27.58;;;12.35;;
76208;SDS011;64990;51.698;-0.292;2023-02-08T13:48:42;33.05;;;13.98;;
76208;SDS011;64990;51.698;-0.292;2023-02-08T13:51:54;34.30;;;13.25;;
76208;SDS011;64990;51.698;-0.292;2023-02-08T14:04:39;27.33;;;12.02;;
76208;SDS011;64990;51.698;-0.292;2023-02-08T14:17:37;36.55;;;17.92;;
76208;SDS011;64990;51.698;-0.292;2023-02-08T14:20:06;38.63;;;16.10;;
76208;SDS011;64990;51.698;-0.292;2023-02-08T14:22:34;32.83;;;12.85;;
76208;SDS011;64990;51.698;-0.292;2023-02-08T14:27:34;32.30;;;15.55;;
76208;SDS011;64990;51.698;-0.292;2023-02-08T14:32:31;33.20;;;12.82;;
76208;SDS011;64990;51.698;-0.292;2023-02-08T14:35:03;29.15;;;13.60;;
76208;SDS011;64990;51.698;-0.292;2023-02-08T14:37:31;28.55;;;12.93;;
76208;SDS011;64990;51.698;-0.292;2023-02-08T14:45:27;26.50;;;11.95;;
76208;SDS011;64990;51.698;-0.292;2023-02-08T14:47:55;25.60;;;13.70;;
76208;SDS011;64990;51.698;-0.292;2023-02-08T14:50:24;32.22;;;14.20;;
76208;SDS011;64990;51.698;-0.292;2023-02-08T14:53:33;32.28;;;13.35;;
76208;SDS011;64990;51.698;-0.292;2023-02-08T14:55:41;37.65;;;13.98;;
76208;SDS011;64990;51.698;-0.292;2023-02-08T14:58:11;27.20;;;13.10;;
76208;SDS011;64990;51.698;-0.292;2023-02-08T15:00:38;35.22;;;14.68;;
76208;SDS011;64990;51.698;-0.292;2023-02-08T15:03:06;33.97;;;14.52;;
76208;SDS011;64990;51.698;-0.292;2023-02-08T15:05:40;33.40;;;14.63;;
76208;SDS011;64990;51.698;-0.292;2023-02-08T15:08:08;34.47;;;16.70;;
76208;SDS011;64990;51.698;-0.292;2023-02-08T15:10:34;36.90;;;17.15;;
76208;SDS011;64990;51.698;-0.292;2023-02-08T15:13:06;26.88;;;14.68;;
76208;SDS011;64990;51.698;-0.292;2023-02-08T15:15:42;28.65;;;12.13;;
76208;SDS011;64990;51.698;-0.292;2023-02-08T15:18:20;32.42;;;14.88;;
76208;SDS011;64990;51.698;-0.292;2023-02-08T15:21:02;27.73;;;14.50;;
76208;SDS011;64990;51.698;-0.292;2023-02-08T15:23:28;25.70;;;12.35;;
76208;SDS011;64990;51.698;-0.292;2023-02-08T15:25:59;27.00;;;11.77;;
76208;SDS011;64990;51.698;-0.292;2023-02-08T15:28:27;28.05;;;11.70;;
76208;SDS011;64990;51.698;-0.292;2023-02-08T15:31:00;30.05;;;12.13;;
76208;SDS011;64990;51.698;-0.292;2023-02-08T15:33:27;21.02;;;8.38;;
76208;SDS011;64990;51.698;-0.292;2023-02-08T15:36:00;23.02;;;10.15;;
76208;SDS011;64990;51.698;-0.292;2023-02-08T15:38:27;25.08;;;9.90;;
76208;SDS011;64990;51.698;-0.292;2023-02-08T15:41:05;19.27;;;8.73;;
76208;SDS011;64990;51.698;-0.292;2023-02-08T15:43:31;31.38;;;13.57;;
76208;SDS011;64990;51.698;-0.292;2023-02-08T15:45:58;25.35;;;11.93;;
76208;SDS011;64990;51.698;-0.292;2023-02-08T15:48:26;39.90;;;13.95;;
76208;SDS011;64990;51.698;-0.292;2023-02-08T15:50:52;30.20;;;16.23;;
76208;SDS011;64990;51.698;-0.292;2023-02-08T15:53:19;36.22;;;17.60;;
76208;SDS011;64990;51.698;-0.292;2023-02-08T15:55:47;44.92;;;18.25;;
76208;SDS011;64990;51.698;-0.292;2023-02-08T15:58:29;52.60;;;20.90;;
76208;SDS011;64990;51.698;-0.292;2023-02-08T16:00:57;51.90;;;21.73;;
76208;SDS011;64990;51.698;-0.292;2023-02-08T16:03:23;38.67;;;18.10;;
76208;SDS011;64990;51.698;-0.292;2023-02-08T16:05:52;43.28;;;16.98;;
76208;SDS011;64990;51.698;-0.292;2023-02-08T16:08:21;46.70;;;20.25;;
76208;SDS011;64990;51.698;-0.292;2023-02-08T16:10:51;46.30;;;19.15;;
76208;SDS011;64990;51.698;-0.292;2023-02-08T16:13:22;38.47;;;19.02;;
76208;SDS011;64990;51.698;-0.292;2023-02-08T16:15:50;44.25;;;18.20;;
76208;SDS011;64990;51.698;-0.292;2023-02-08T16:21:20;44.72;;;19.27;;
76208;SDS011;64990;51.698;-0.292;2023-02-08T16:23:50;39.00;;;18.33;;
76208;SDS011;64990;51.698;-0.292;2023-02-08T16:26:20;35.83;;;18.42;;
76208;SDS011;64990;51.698;-0.292;2023-02-08T16:28:57;46.28;;;17.25;;
76208;SDS011;64990;51.698;-0.292;2023-02-08T16:31:24;45.22;;;19.15;;